Terminal Aerodrome Forecast
Issued by NWS Detroit/Pontiac, MI

Home | Current Version | Previous Version | Text Only | Print | Product List | Glossary On
Versions: 1 2 3 4 5 6 7 8 9 10 11 12 13 14 15 16 17 18 19 20 21 22 23 24 25 26 27 28
840
FTUS43 KDTX 221727
TAFDTW
TAF
KDTW 221727Z 2218/2324 25015G25KT P6SM SCT050 SCT250
     FM230100 22006KT P6SM SCT100 BKN250
     FM231400 18006KT P6SM BKN100 OVC250
     FM232200 15012KT P6SM BKN250=

USA.gov is the U.S. government's official web portal to all federal, state and local government web resources and services.